Pagina principală
METAR-TAF:

METAR-TAF

Aeroporturi :

Blue River, Columbia Britanică, Canada

Latitudine: 52-08N, longitudine: 119-18W, elevație: 679 m

Observații meteo curente

Raportul a fost făcut în urmă cu 50 de minute, la 21:00 UTC
Vânt 5 kt de la Vest, variabil între Sud și Vest/Nord-vest
Temperatură 22°C
Umiditate 38%
Presiune 1011 hPa
Vizibilitate: 24.1 km
Nori împrăștiați la o înălțime de 7500 picior
Nori fragmentați la o înălțime de 9000 picior
Nori fragmentați la o înălțime de 12000 picior
averse în apropiere

METAR: CYCP 222100Z 26005KT 170V300 15SM VCSH SCT075 BKN090 BKN120 22/07 A2986 RMK CU4AC2AC1 SLP121 DENSITY ALT 3700FT

Ora: 14:50 (21:50 UTC)


TAF: lipsă

Observații și prognoze meteo pentru peste 4.000 de aeroporturi (rapoarte METAR și TAF).

Stațiile disponibile sunt reprezentate pe hartă prin puncte galbene și roșii.

Țineți indicatorul mouse-ului pe punctul dorit pentru a vedea denumirea stației.

Apoi, faceți clic pentru a vedea observațiile și prognozele meteorologice.

Pentru a schimba harta: Pentru mărire, faceți clic pe butoanele verzi cu cruce neagră; pentru micșorare, pe butonul verde cu o liniuță; pentru hărți învecinate, pe săgețile verzi.


METAR-TAF: